Broadway, OH (43007)

9:20 AM EST on February 06, 2016 (GMT -0500)
SR4 and SR347 | | Change Station
CLOSE
Current Station
Personal Weather Station
Location: Marysville, OH
Elevation: 965 ft
Nearby Weather Stations

Elev 965 ft 40.33 °N, 83.31 °W | Updated 17 seconds ago

Clear
Clear
28.5 °F
Feels Like 24 °F
N
4.0
Wind Variable Wind from West
Gusts 4.0 mph

Today
High -- | Low -- °F
--% Chance of Precip.
Yesterday
High -- | Low -- °F
Precip. -- in
Pressure 30.33 in
Visibility 4.0 miles
Clouds Clear
Windchill 24 °F
Dew Point 27 °F
Humidity 93%
Rainfall 0.00 in
Snow Depth Not available.
7:38 AM 5:57 PM
Waning Crescent, 5% visible
METAR KMRT 061413Z AUTO 24003KT 4SM CLR M02/M04 A3033 RMK AO2 T10241037
Pressure 30.33 in
Visibility 4.0 miles
Clouds Clear
Windchill 24 °F
Dew Point 27 °F
Humidity 93%
Rainfall 0.00 in
Snow Depth Not available.
7:38 AM 5:57 PM
Waning Crescent, 5% visible
METAR KMRT 061413Z AUTO 24003KT 4SM CLR M02/M04 A3033 RMK AO2 T10241037

10-Day Weather Forecast

Almanac

Astronomy

Feb. 06, 2016 Rise Set
Actual Time
Civil Twilight
Nautical Twilight
Astronomical Twilight
Moon
Length of Visible Light
Length of Day
Tomorrow will be .
, % of the Moon is Illuminated

Today's Extremes

State Highs State Lows

Community

WunderPhotos

Upload Photos

1,890,976 photos uploaded!

WunderBlog® & News

Nearby

Air Quality

  Air Quality AQ Index Pollutant
Not available.

Snow Depth

Station Depth Elevation

Earthquake Activity

City Distance Mag. Time & Date
Minimum magnitude displayed is 2.5.

Coastal Water Temperatures

Place Temperature

Stations

Nearby Weather Stations

Station Location Temp. Windchill Dew Point Humidity Wind Precip. Elev Updated Type
                   

Watches & Warnings

There are currently no watches in effect.